sensor_id;sensor_type;location;lat;lon;timestamp;P1;durP1;ratioP1;P2;durP2;ratioP2
9974;SDS011;5028;50.974;4.968;2023-11-19T00:00:26;2.23;;;1.77;;
9974;SDS011;5028;50.974;4.968;2023-11-19T00:02:55;2.03;;;1.60;;
9974;SDS011;5028;50.974;4.968;2023-11-19T00:05:25;3.70;;;1.60;;
9974;SDS011;5028;50.974;4.968;2023-11-19T00:07:54;1.70;;;1.60;;
9974;SDS011;5028;50.974;4.968;2023-11-19T00:10:22;2.57;;;1.73;;
9974;SDS011;5028;50.974;4.968;2023-11-19T00:12:51;1.93;;;1.47;;
9974;SDS011;5028;50.974;4.968;2023-11-19T00:15:21;2.83;;;1.70;;
9974;SDS011;5028;50.974;4.968;2023-11-19T00:17:50;2.20;;;1.33;;
9974;SDS011;5028;50.974;4.968;2023-11-19T00:20:20;2.87;;;1.43;;
9974;SDS011;5028;50.974;4.968;2023-11-19T00:22:51;2.77;;;1.70;;
9974;SDS011;5028;50.974;4.968;2023-11-19T00:25:20;4.10;;;2.40;;
9974;SDS011;5028;50.974;4.968;2023-11-19T00:27:49;4.37;;;1.83;;
9974;SDS011;5028;50.974;4.968;2023-11-19T00:30:18;5.23;;;1.70;;
9974;SDS011;5028;50.974;4.968;2023-11-19T00:32:46;5.03;;;2.10;;
9974;SDS011;5028;50.974;4.968;2023-11-19T00:35:15;5.67;;;2.20;;
9974;SDS011;5028;50.974;4.968;2023-11-19T00:37:44;5.80;;;2.33;;
9974;SDS011;5028;50.974;4.968;2023-11-19T00:40:16;7.80;;;2.47;;
9974;SDS011;5028;50.974;4.968;2023-11-19T00:42:45;5.93;;;2.27;;
9974;SDS011;5028;50.974;4.968;2023-11-19T00:45:14;6.27;;;2.30;;
9974;SDS011;5028;50.974;4.968;2023-11-19T00:47:42;6.63;;;2.37;;
9974;SDS011;5028;50.974;4.968;2023-11-19T00:50:11;8.23;;;2.73;;
9974;SDS011;5028;50.974;4.968;2023-11-19T00:52:40;8.77;;;2.30;;
9974;SDS011;5028;50.974;4.968;2023-11-19T00:55:09;8.33;;;2.70;;
9974;SDS011;5028;50.974;4.968;2023-11-19T00:57:40;7.73;;;2.80;;
9974;SDS011;5028;50.974;4.968;2023-11-19T01:00:09;8.00;;;2.20;;
9974;SDS011;5028;50.974;4.968;2023-11-19T01:02:45;10.17;;;2.77;;
9974;SDS011;5028;50.974;4.968;2023-11-19T01:05:18;8.10;;;2.77;;
9974;SDS011;5028;50.974;4.968;2023-11-19T01:07:49;8.40;;;2.80;;
9974;SDS011;5028;50.974;4.968;2023-11-19T01:10:21;6.93;;;2.53;;
9974;SDS011;5028;50.974;4.968;2023-11-19T01:12:52;7.70;;;2.90;;
9974;SDS011;5028;50.974;4.968;2023-11-19T01:15:22;9.70;;;3.00;;
9974;SDS011;5028;50.974;4.968;2023-11-19T01:17:50;9.13;;;2.80;;
9974;SDS011;5028;50.974;4.968;2023-11-19T01:20:19;10.13;;;3.07;;
9974;SDS011;5028;50.974;4.968;2023-11-19T01:22:48;11.87;;;2.80;;
9974;SDS011;5028;50.974;4.968;2023-11-19T01:25:17;9.23;;;3.00;;
9974;SDS011;5028;50.974;4.968;2023-11-19T01:27:46;9.60;;;2.87;;
9974;SDS011;5028;50.974;4.968;2023-11-19T01:30:18;9.73;;;2.73;;
9974;SDS011;5028;50.974;4.968;2023-11-19T01:32:46;12.63;;;3.67;;
9974;SDS011;5028;50.974;4.968;2023-11-19T01:35:15;10.07;;;3.33;;
9974;SDS011;5028;50.974;4.968;2023-11-19T01:37:44;11.70;;;3.20;;
9974;SDS011;5028;50.974;4.968;2023-11-19T01:40:12;9.10;;;2.60;;
9974;SDS011;5028;50.974;4.968;2023-11-19T01:42:41;10.77;;;3.00;;
9974;SDS011;5028;50.974;4.968;2023-11-19T01:45:10;10.73;;;3.20;;
9974;SDS011;5028;50.974;4.968;2023-11-19T01:47:55;10.40;;;3.33;;
9974;SDS011;5028;50.974;4.968;2023-11-19T01:50:23;11.50;;;3.27;;
9974;SDS011;5028;50.974;4.968;2023-11-19T01:52:53;11.37;;;2.83;;
9974;SDS011;5028;50.974;4.968;2023-11-19T01:55:24;9.90;;;3.33;;
9974;SDS011;5028;50.974;4.968;2023-11-19T01:57:55;11.10;;;3.00;;
9974;SDS011;5028;50.974;4.968;2023-11-19T02:00:29;12.33;;;3.33;;
9974;SDS011;5028;50.974;4.968;2023-11-19T02:03:00;11.37;;;3.30;;
9974;SDS011;5028;50.974;4.968;2023-11-19T02:05:30;9.70;;;2.90;;
9974;SDS011;5028;50.974;4.968;2023-11-19T02:08:00;8.40;;;2.63;;
9974;SDS011;5028;50.974;4.968;2023-11-19T02:10:29;8.63;;;2.80;;
9974;SDS011;5028;50.974;4.968;2023-11-19T02:12:58;10.00;;;3.00;;
9974;SDS011;5028;50.974;4.968;2023-11-19T02:15:34;8.30;;;3.00;;
9974;SDS011;5028;50.974;4.968;2023-11-19T02:18:18;10.63;;;2.93;;
9974;SDS011;5028;50.974;4.968;2023-11-19T02:20:49;10.30;;;3.00;;
9974;SDS011;5028;50.974;4.968;2023-11-19T02:23:17;8.43;;;2.77;;
9974;SDS011;5028;50.974;4.968;2023-11-19T02:25:51;7.30;;;2.60;;
9974;SDS011;5028;50.974;4.968;2023-11-19T02:28:28;8.17;;;2.53;;
9974;SDS011;5028;50.974;4.968;2023-11-19T02:30:57;10.17;;;2.77;;
9974;SDS011;5028;50.974;4.968;2023-11-19T02:33:25;8.47;;;2.53;;
9974;SDS011;5028;50.974;4.968;2023-11-19T02:35:54;9.87;;;2.80;;
9974;SDS011;5028;50.974;4.968;2023-11-19T02:38:22;10.70;;;2.80;;
9974;SDS011;5028;50.974;4.968;2023-11-19T02:40:51;8.77;;;2.70;;
9974;SDS011;5028;50.974;4.968;2023-11-19T02:43:19;14.27;;;3.40;;
9974;SDS011;5028;50.974;4.968;2023-11-19T02:45:50;13.83;;;3.47;;
9974;SDS011;5028;50.974;4.968;2023-11-19T02:48:18;12.60;;;3.23;;
9974;SDS011;5028;50.974;4.968;2023-11-19T02:50:47;11.97;;;3.20;;
9974;SDS011;5028;50.974;4.968;2023-11-19T02:53:19;13.87;;;3.43;;
9974;SDS011;5028;50.974;4.968;2023-11-19T02:55:49;11.90;;;3.97;;
9974;SDS011;5028;50.974;4.968;2023-11-19T02:58:18;12.93;;;3.37;;
9974;SDS011;5028;50.974;4.968;2023-11-19T03:00:53;15.07;;;3.90;;
9974;SDS011;5028;50.974;4.968;2023-11-19T03:03:24;12.97;;;3.43;;
9974;SDS011;5028;50.974;4.968;2023-11-19T03:05:57;16.73;;;3.80;;
9974;SDS011;5028;50.974;4.968;2023-11-19T03:08:25;13.27;;;4.00;;
9974;SDS011;5028;50.974;4.968;2023-11-19T03:10:54;15.43;;;4.00;;
9974;SDS011;5028;50.974;4.968;2023-11-19T03:13:22;17.37;;;4.07;;
9974;SDS011;5028;50.974;4.968;2023-11-19T03:15:52;10.73;;;3.73;;
9974;SDS011;5028;50.974;4.968;2023-11-19T03:18:22;14.97;;;4.03;;
9974;SDS011;5028;50.974;4.968;2023-11-19T03:20:50;16.73;;;4.30;;
9974;SDS011;5028;50.974;4.968;2023-11-19T03:23:19;15.17;;;3.80;;
9974;SDS011;5028;50.974;4.968;2023-11-19T03:25:47;12.13;;;3.20;;
9974;SDS011;5028;50.974;4.968;2023-11-19T03:28:16;14.90;;;4.23;;
9974;SDS011;5028;50.974;4.968;2023-11-19T03:30:44;13.43;;;3.67;;
9974;SDS011;5028;50.974;4.968;2023-11-19T03:33:14;16.60;;;3.93;;
9974;SDS011;5028;50.974;4.968;2023-11-19T03:35:43;16.57;;;4.13;;
9974;SDS011;5028;50.974;4.968;2023-11-19T03:38:12;12.43;;;3.50;;
9974;SDS011;5028;50.974;4.968;2023-11-19T03:40:41;15.90;;;4.00;;
9974;SDS011;5028;50.974;4.968;2023-11-19T03:43:09;12.23;;;3.47;;
9974;SDS011;5028;50.974;4.968;2023-11-19T03:45:39;9.83;;;3.13;;
9974;SDS011;5028;50.974;4.968;2023-11-19T03:48:08;12.50;;;3.70;;
9974;SDS011;5028;50.974;4.968;2023-11-19T03:50:37;11.93;;;3.47;;
9974;SDS011;5028;50.974;4.968;2023-11-19T03:53:06;13.83;;;3.70;;
9974;SDS011;5028;50.974;4.968;2023-11-19T03:55:35;12.10;;;3.83;;
9974;SDS011;5028;50.974;4.968;2023-11-19T03:58:04;11.50;;;3.43;;
9974;SDS011;5028;50.974;4.968;2023-11-19T04:00:32;14.30;;;4.10;;
9974;SDS011;5028;50.974;4.968;2023-11-19T04:03:01;11.83;;;3.40;;
9974;SDS011;5028;50.974;4.968;2023-11-19T04:05:31;15.10;;;4.07;;
9974;SDS011;5028;50.974;4.968;2023-11-19T04:08:01;16.13;;;3.90;;
9974;SDS011;5028;50.974;4.968;2023-11-19T04:10:29;14.27;;;4.07;;
9974;SDS011;5028;50.974;4.968;2023-11-19T04:12:58;16.27;;;4.50;;
9974;SDS011;5028;50.974;4.968;2023-11-19T04:15:27;19.13;;;4.33;;
9974;SDS011;5028;50.974;4.968;2023-11-19T04:17:56;14.10;;;3.77;;
9974;SDS011;5028;50.974;4.968;2023-11-19T04:20:25;15.23;;;3.97;;
9974;SDS011;5028;50.974;4.968;2023-11-19T04:22:53;14.30;;;3.70;;
9974;SDS011;5028;50.974;4.968;2023-11-19T04:25:23;16.17;;;4.00;;
9974;SDS011;5028;50.974;4.968;2023-11-19T04:27:52;17.00;;;4.67;;
9974;SDS011;5028;50.974;4.968;2023-11-19T04:30:21;14.03;;;4.27;;
9974;SDS011;5028;50.974;4.968;2023-11-19T04:32:49;17.30;;;4.27;;
9974;SDS011;5028;50.974;4.968;2023-11-19T04:35:18;10.87;;;3.60;;
9974;SDS011;5028;50.974;4.968;2023-11-19T04:37:46;14.60;;;4.87;;
9974;SDS011;5028;50.974;4.968;2023-11-19T04:40:15;15.67;;;4.03;;
9974;SDS011;5028;50.974;4.968;2023-11-19T04:42:46;15.37;;;4.60;;
9974;SDS011;5028;50.974;4.968;2023-11-19T04:45:14;17.20;;;4.40;;
9974;SDS011;5028;50.974;4.968;2023-11-19T04:47:43;16.10;;;4.30;;
9974;SDS011;5028;50.974;4.968;2023-11-19T04:50:12;19.83;;;4.57;;
9974;SDS011;5028;50.974;4.968;2023-11-19T04:52:40;17.10;;;4.50;;
9974;SDS011;5028;50.974;4.968;2023-11-19T04:55:08;16.97;;;4.37;;
9974;SDS011;5028;50.974;4.968;2023-11-19T04:57:39;17.27;;;4.73;;
9974;SDS011;5028;50.974;4.968;2023-11-19T05:00:10;16.63;;;3.93;;
9974;SDS011;5028;50.974;4.968;2023-11-19T05:02:43;15.53;;;4.50;;
9974;SDS011;5028;50.974;4.968;2023-11-19T05:05:12;17.00;;;4.50;;
9974;SDS011;5028;50.974;4.968;2023-11-19T05:07:41;19.90;;;4.53;;
9974;SDS011;5028;50.974;4.968;2023-11-19T05:10:09;18.13;;;4.97;;
9974;SDS011;5028;50.974;4.968;2023-11-19T05:12:38;13.67;;;4.20;;
9974;SDS011;5028;50.974;4.968;2023-11-19T05:15:10;14.73;;;3.97;;
9974;SDS011;5028;50.974;4.968;2023-11-19T05:17:39;14.90;;;4.43;;
9974;SDS011;5028;50.974;4.968;2023-11-19T05:20:08;16.67;;;4.53;;
9974;SDS011;5028;50.974;4.968;2023-11-19T05:22:40;18.87;;;5.37;;
9974;SDS011;5028;50.974;4.968;2023-11-19T05:25:09;17.77;;;5.27;;
9974;SDS011;5028;50.974;4.968;2023-11-19T05:27:38;14.63;;;4.00;;
9974;SDS011;5028;50.974;4.968;2023-11-19T05:30:06;16.57;;;4.10;;
9974;SDS011;5028;50.974;4.968;2023-11-19T05:32:39;15.17;;;4.30;;
9974;SDS011;5028;50.974;4.968;2023-11-19T05:35:07;20.13;;;5.07;;
9974;SDS011;5028;50.974;4.968;2023-11-19T05:37:36;13.00;;;4.37;;
9974;SDS011;5028;50.974;4.968;2023-11-19T05:40:05;19.53;;;5.40;;
9974;SDS011;5028;50.974;4.968;2023-11-19T05:42:42;23.00;;;5.17;;
9974;SDS011;5028;50.974;4.968;2023-11-19T05:45:11;19.17;;;5.47;;
9974;SDS011;5028;50.974;4.968;2023-11-19T05:47:41;17.20;;;4.93;;
9974;SDS011;5028;50.974;4.968;2023-11-19T05:50:10;25.40;;;5.90;;
9974;SDS011;5028;50.974;4.968;2023-11-19T05:52:39;17.87;;;5.07;;
9974;SDS011;5028;50.974;4.968;2023-11-19T05:55:08;17.80;;;5.67;;
9974;SDS011;5028;50.974;4.968;2023-11-19T05:57:37;22.80;;;5.73;;
9974;SDS011;5028;50.974;4.968;2023-11-19T06:00:09;17.93;;;4.83;;
9974;SDS011;5028;50.974;4.968;2023-11-19T06:02:41;19.40;;;4.83;;
9974;SDS011;5028;50.974;4.968;2023-11-19T06:05:10;18.00;;;4.77;;
9974;SDS011;5028;50.974;4.968;2023-11-19T06:07:38;17.70;;;5.03;;
9974;SDS011;5028;50.974;4.968;2023-11-19T06:10:08;18.60;;;4.90;;
9974;SDS011;5028;50.974;4.968;2023-11-19T06:12:37;20.33;;;5.23;;
9974;SDS011;5028;50.974;4.968;2023-11-19T06:15:08;18.77;;;5.10;;
9974;SDS011;5028;50.974;4.968;2023-11-19T06:17:38;16.83;;;4.63;;
9974;SDS011;5028;50.974;4.968;2023-11-19T06:20:09;19.47;;;4.60;;
9974;SDS011;5028;50.974;4.968;2023-11-19T06:22:38;20.37;;;4.97;;
9974;SDS011;5028;50.974;4.968;2023-11-19T06:25:08;17.27;;;4.83;;
9974;SDS011;5028;50.974;4.968;2023-11-19T06:27:37;20.30;;;5.03;;
9974;SDS011;5028;50.974;4.968;2023-11-19T06:30:06;18.80;;;4.83;;
9974;SDS011;5028;50.974;4.968;2023-11-19T06:32:36;22.47;;;5.57;;
9974;SDS011;5028;50.974;4.968;2023-11-19T06:35:05;19.27;;;5.23;;
9974;SDS011;5028;50.974;4.968;2023-11-19T06:37:37;19.43;;;5.30;;
9974;SDS011;5028;50.974;4.968;2023-11-19T06:40:07;20.83;;;5.60;;
9974;SDS011;5028;50.974;4.968;2023-11-19T06:42:37;16.73;;;5.43;;
9974;SDS011;5028;50.974;4.968;2023-11-19T06:45:06;22.13;;;5.17;;
9974;SDS011;5028;50.974;4.968;2023-11-19T06:47:35;24.67;;;5.70;;
9974;SDS011;5028;50.974;4.968;2023-11-19T06:50:04;21.43;;;5.73;;
9974;SDS011;5028;50.974;4.968;2023-11-19T06:52:37;16.70;;;4.43;;
9974;SDS011;5028;50.974;4.968;2023-11-19T06:55:06;19.90;;;5.60;;
9974;SDS011;5028;50.974;4.968;2023-11-19T06:57:35;16.83;;;4.73;;
9974;SDS011;5028;50.974;4.968;2023-11-19T07:00:05;21.77;;;5.20;;
9974;SDS011;5028;50.974;4.968;2023-11-19T07:02:35;24.20;;;5.50;;
9974;SDS011;5028;50.974;4.968;2023-11-19T07:05:04;19.50;;;5.03;;
9974;SDS011;5028;50.974;4.968;2023-11-19T07:07:34;18.27;;;4.67;;
9974;SDS011;5028;50.974;4.968;2023-11-19T07:10:05;22.07;;;5.33;;
9974;SDS011;5028;50.974;4.968;2023-11-19T07:12:36;17.03;;;4.47;;
9974;SDS011;5028;50.974;4.968;2023-11-19T07:15:05;19.07;;;5.03;;
9974;SDS011;5028;50.974;4.968;2023-11-19T07:17:34;19.73;;;4.87;;
9974;SDS011;5028;50.974;4.968;2023-11-19T07:20:04;21.90;;;5.27;;
9974;SDS011;5028;50.974;4.968;2023-11-19T07:22:34;15.83;;;4.60;;
9974;SDS011;5028;50.974;4.968;2023-11-19T07:25:07;20.63;;;4.80;;
9974;SDS011;5028;50.974;4.968;2023-11-19T07:27:35;19.80;;;5.23;;
9974;SDS011;5028;50.974;4.968;2023-11-19T07:30:05;18.23;;;4.60;;
9974;SDS011;5028;50.974;4.968;2023-11-19T07:32:35;22.47;;;5.87;;
9974;SDS011;5028;50.974;4.968;2023-11-19T07:35:06;19.83;;;5.17;;
9974;SDS011;5028;50.974;4.968;2023-11-19T07:37:35;18.13;;;5.20;;
9974;SDS011;5028;50.974;4.968;2023-11-19T07:40:05;18.00;;;4.93;;
9974;SDS011;5028;50.974;4.968;2023-11-19T07:42:38;16.63;;;4.50;;
9974;SDS011;5028;50.974;4.968;2023-11-19T07:45:07;21.17;;;4.80;;
9974;SDS011;5028;50.974;4.968;2023-11-19T07:47:37;13.90;;;5.13;;
9974;SDS011;5028;50.974;4.968;2023-11-19T07:50:06;20.27;;;4.80;;
9974;SDS011;5028;50.974;4.968;2023-11-19T07:52:35;17.80;;;5.27;;
9974;SDS011;5028;50.974;4.968;2023-11-19T07:55:05;19.80;;;5.13;;
9974;SDS011;5028;50.974;4.968;2023-11-19T07:57:35;22.50;;;5.33;;
9974;SDS011;5028;50.974;4.968;2023-11-19T08:00:05;15.33;;;4.30;;
9974;SDS011;5028;50.974;4.968;2023-11-19T08:02:39;17.50;;;4.80;;
9974;SDS011;5028;50.974;4.968;2023-11-19T08:05:08;20.87;;;5.17;;
9974;SDS011;5028;50.974;4.968;2023-11-19T08:07:37;18.77;;;4.97;;
9974;SDS011;5028;50.974;4.968;2023-11-19T08:10:08;22.00;;;5.23;;
9974;SDS011;5028;50.974;4.968;2023-11-19T08:12:38;19.50;;;5.30;;
9974;SDS011;5028;50.974;4.968;2023-11-19T08:15:10;22.70;;;5.90;;
9974;SDS011;5028;50.974;4.968;2023-11-19T08:17:39;18.17;;;4.50;;
9974;SDS011;5028;50.974;4.968;2023-11-19T08:20:10;23.07;;;5.70;;
9974;SDS011;5028;50.974;4.968;2023-11-19T08:22:39;20.63;;;5.13;;
9974;SDS011;5028;50.974;4.968;2023-11-19T08:25:09;19.00;;;5.03;;
9974;SDS011;5028;50.974;4.968;2023-11-19T08:27:38;20.80;;;5.73;;
9974;SDS011;5028;50.974;4.968;2023-11-19T08:30:07;21.27;;;5.40;;
9974;SDS011;5028;50.974;4.968;2023-11-19T08:32:37;21.97;;;5.43;;
9974;SDS011;5028;50.974;4.968;2023-11-19T08:35:06;21.97;;;5.43;;
9974;SDS011;5028;50.974;4.968;2023-11-19T08:37:35;23.03;;;6.03;;
9974;SDS011;5028;50.974;4.968;2023-11-19T08:40:05;18.97;;;5.00;;
9974;SDS011;5028;50.974;4.968;2023-11-19T08:42:37;20.10;;;4.87;;
9974;SDS011;5028;50.974;4.968;2023-11-19T08:45:06;19.10;;;4.43;;
9974;SDS011;5028;50.974;4.968;2023-11-19T08:47:36;21.47;;;4.80;;
9974;SDS011;5028;50.974;4.968;2023-11-19T08:50:07;17.23;;;4.53;;
9974;SDS011;5028;50.974;4.968;2023-11-19T08:52:36;18.07;;;4.80;;
9974;SDS011;5028;50.974;4.968;2023-11-19T08:55:05;18.20;;;5.17;;
9974;SDS011;5028;50.974;4.968;2023-11-19T08:57:34;15.37;;;5.03;;
9974;SDS011;5028;50.974;4.968;2023-11-19T09:00:05;17.80;;;5.23;;
9974;SDS011;5028;50.974;4.968;2023-11-19T09:02:34;18.37;;;4.87;;
9974;SDS011;5028;50.974;4.968;2023-11-19T09:05:04;18.53;;;5.23;;
9974;SDS011;5028;50.974;4.968;2023-11-19T09:07:34;18.30;;;4.47;;
9974;SDS011;5028;50.974;4.968;2023-11-19T09:10:03;15.50;;;4.73;;
9974;SDS011;5028;50.974;4.968;2023-11-19T09:12:32;22.67;;;5.57;;
9974;SDS011;5028;50.974;4.968;2023-11-19T09:15:06;21.93;;;5.30;;
9974;SDS011;5028;50.974;4.968;2023-11-19T09:17:37;20.30;;;4.87;;
9974;SDS011;5028;50.974;4.968;2023-11-19T09:20:06;20.10;;;5.40;;
9974;SDS011;5028;50.974;4.968;2023-11-19T09:22:38;18.57;;;4.50;;
9974;SDS011;5028;50.974;4.968;2023-11-19T09:25:07;15.47;;;4.93;;
9974;SDS011;5028;50.974;4.968;2023-11-19T09:27:35;18.90;;;4.90;;
9974;SDS011;5028;50.974;4.968;2023-11-19T09:30:07;18.10;;;4.47;;
9974;SDS011;5028;50.974;4.968;2023-11-19T09:32:36;15.93;;;4.73;;
9974;SDS011;5028;50.974;4.968;2023-11-19T09:35:05;17.07;;;4.60;;
9974;SDS011;5028;50.974;4.968;2023-11-19T09:37:35;20.33;;;5.03;;
9974;SDS011;5028;50.974;4.968;2023-11-19T09:40:04;15.17;;;4.23;;
9974;SDS011;5028;50.974;4.968;2023-11-19T09:42:38;20.10;;;4.93;;
9974;SDS011;5028;50.974;4.968;2023-11-19T09:45:14;15.13;;;4.47;;
9974;SDS011;5028;50.974;4.968;2023-11-19T09:47:44;17.60;;;5.03;;
9974;SDS011;5028;50.974;4.968;2023-11-19T09:50:16;17.53;;;4.40;;
9974;SDS011;5028;50.974;4.968;2023-11-19T09:52:45;16.13;;;4.90;;
9974;SDS011;5028;50.974;4.968;2023-11-19T09:55:23;16.43;;;4.17;;
9974;SDS011;5028;50.974;4.968;2023-11-19T09:57:52;16.80;;;3.93;;
9974;SDS011;5028;50.974;4.968;2023-11-19T10:00:23;16.53;;;4.77;;
9974;SDS011;5028;50.974;4.968;2023-11-19T10:02:51;13.30;;;4.17;;
9974;SDS011;5028;50.974;4.968;2023-11-19T10:05:22;16.70;;;4.60;;
9974;SDS011;5028;50.974;4.968;2023-11-19T10:07:52;16.40;;;4.23;;
9974;SDS011;5028;50.974;4.968;2023-11-19T10:10:23;15.47;;;4.13;;
9974;SDS011;5028;50.974;4.968;2023-11-19T10:12:52;11.70;;;3.90;;
9974;SDS011;5028;50.974;4.968;2023-11-19T10:15:25;13.30;;;4.10;;
9974;SDS011;5028;50.974;4.968;2023-11-19T10:17:55;12.23;;;3.80;;
9974;SDS011;5028;50.974;4.968;2023-11-19T10:20:25;12.43;;;4.40;;
9974;SDS011;5028;50.974;4.968;2023-11-19T10:22:54;14.73;;;3.93;;
9974;SDS011;5028;50.974;4.968;2023-11-19T10:25:23;12.53;;;3.90;;
9974;SDS011;5028;50.974;4.968;2023-11-19T10:27:53;13.40;;;4.40;;
9974;SDS011;5028;50.974;4.968;2023-11-19T10:30:25;17.53;;;4.20;;
9974;SDS011;5028;50.974;4.968;2023-11-19T10:33:05;13.93;;;4.30;;
9974;SDS011;5028;50.974;4.968;2023-11-19T10:35:35;13.03;;;4.00;;
9974;SDS011;5028;50.974;4.968;2023-11-19T10:38:13;9.17;;;3.13;;
9974;SDS011;5028;50.974;4.968;2023-11-19T10:40:43;11.43;;;3.57;;
9974;SDS011;5028;50.974;4.968;2023-11-19T10:43:12;13.67;;;4.17;;
9974;SDS011;5028;50.974;4.968;2023-11-19T10:45:42;13.33;;;3.90;;
9974;SDS011;5028;50.974;4.968;2023-11-19T10:48:11;14.67;;;3.87;;
9974;SDS011;5028;50.974;4.968;2023-11-19T10:50:40;14.33;;;3.83;;
9974;SDS011;5028;50.974;4.968;2023-11-19T10:53:10;11.73;;;4.33;;
9974;SDS011;5028;50.974;4.968;2023-11-19T10:55:40;13.97;;;4.03;;
9974;SDS011;5028;50.974;4.968;2023-11-19T10:58:09;14.20;;;4.30;;
9974;SDS011;5028;50.974;4.968;2023-11-19T11:00:38;11.70;;;4.03;;
9974;SDS011;5028;50.974;4.968;2023-11-19T11:03:15;13.87;;;3.90;;
9974;SDS011;5028;50.974;4.968;2023-11-19T11:05:46;15.43;;;4.07;;
9974;SDS011;5028;50.974;4.968;2023-11-19T11:08:16;16.07;;;4.40;;
9974;SDS011;5028;50.974;4.968;2023-11-19T11:10:46;14.73;;;4.80;;
9974;SDS011;5028;50.974;4.968;2023-11-19T11:13:24;15.23;;;4.07;;
9974;SDS011;5028;50.974;4.968;2023-11-19T11:15:55;12.40;;;3.93;;
9974;SDS011;5028;50.974;4.968;2023-11-19T11:18:27;17.10;;;4.67;;
9974;SDS011;5028;50.974;4.968;2023-11-19T11:20:59;14.20;;;4.60;;
9974;SDS011;5028;50.974;4.968;2023-11-19T11:23:54;15.37;;;5.43;;
9974;SDS011;5028;50.974;4.968;2023-11-19T11:26:53;13.30;;;4.13;;
9974;SDS011;5028;50.974;4.968;2023-11-19T11:29:40;16.77;;;4.53;;
9974;SDS011;5028;50.974;4.968;2023-11-19T11:32:30;15.70;;;3.97;;
9974;SDS011;5028;50.974;4.968;2023-11-19T11:35:19;14.03;;;3.77;;
9974;SDS011;5028;50.974;4.968;2023-11-19T11:38:00;13.40;;;4.07;;
9974;SDS011;5028;50.974;4.968;2023-11-19T11:40:31;11.67;;;4.07;;
9974;SDS011;5028;50.974;4.968;2023-11-19T11:42:59;14.73;;;4.00;;
9974;SDS011;5028;50.974;4.968;2023-11-19T11:45:38;11.97;;;4.23;;
9974;SDS011;5028;50.974;4.968;2023-11-19T11:48:10;14.23;;;4.33;;
9974;SDS011;5028;50.974;4.968;2023-11-19T11:50:50;12.37;;;3.87;;
9974;SDS011;5028;50.974;4.968;2023-11-19T11:53:20;15.43;;;4.40;;
9974;SDS011;5028;50.974;4.968;2023-11-19T11:55:55;13.07;;;4.10;;
9974;SDS011;5028;50.974;4.968;2023-11-19T11:58:26;14.27;;;4.10;;
9974;SDS011;5028;50.974;4.968;2023-11-19T12:01:03;13.70;;;4.37;;
9974;SDS011;5028;50.974;4.968;2023-11-19T12:03:36;12.60;;;3.90;;
9974;SDS011;5028;50.974;4.968;2023-11-19T12:06:07;14.43;;;4.13;;
9974;SDS011;5028;50.974;4.968;2023-11-19T12:08:36;12.33;;;4.37;;
9974;SDS011;5028;50.974;4.968;2023-11-19T12:11:09;13.83;;;4.13;;
9974;SDS011;5028;50.974;4.968;2023-11-19T12:13:54;16.17;;;4.57;;
9974;SDS011;5028;50.974;4.968;2023-11-19T12:16:26;17.97;;;4.33;;
9974;SDS011;5028;50.974;4.968;2023-11-19T12:18:56;15.27;;;4.17;;
9974;SDS011;5028;50.974;4.968;2023-11-19T12:21:32;12.83;;;3.93;;
9974;SDS011;5028;50.974;4.968;2023-11-19T12:24:04;14.73;;;4.63;;
9974;SDS011;5028;50.974;4.968;2023-11-19T12:26:37;15.70;;;4.17;;
9974;SDS011;5028;50.974;4.968;2023-11-19T12:29:06;13.77;;;3.87;;
9974;SDS011;5028;50.974;4.968;2023-11-19T12:31:36;12.70;;;4.23;;
9974;SDS011;5028;50.974;4.968;2023-11-19T12:34:06;15.73;;;4.73;;
9974;SDS011;5028;50.974;4.968;2023-11-19T12:36:41;14.40;;;3.90;;
9974;SDS011;5028;50.974;4.968;2023-11-19T12:39:10;15.60;;;4.73;;
9974;SDS011;5028;50.974;4.968;2023-11-19T12:41:51;15.57;;;4.13;;
9974;SDS011;5028;50.974;4.968;2023-11-19T12:44:21;12.57;;;3.87;;
9974;SDS011;5028;50.974;4.968;2023-11-19T12:47:02;15.10;;;4.83;;
9974;SDS011;5028;50.974;4.968;2023-11-19T12:49:33;13.07;;;4.13;;
9974;SDS011;5028;50.974;4.968;2023-11-19T12:52:11;14.43;;;4.40;;
9974;SDS011;5028;50.974;4.968;2023-11-19T12:54:39;14.57;;;4.50;;
9974;SDS011;5028;50.974;4.968;2023-11-19T12:57:08;13.87;;;3.80;;
9974;SDS011;5028;50.974;4.968;2023-11-19T12:59:36;9.30;;;3.10;;
9974;SDS011;5028;50.974;4.968;2023-11-19T13:02:05;12.30;;;4.03;;
9974;SDS011;5028;50.974;4.968;2023-11-19T13:04:34;11.60;;;3.33;;
9974;SDS011;5028;50.974;4.968;2023-11-19T13:07:05;11.47;;;3.50;;
9974;SDS011;5028;50.974;4.968;2023-11-19T13:09:33;14.40;;;4.00;;
9974;SDS011;5028;50.974;4.968;2023-11-19T13:12:11;10.97;;;3.80;;
9974;SDS011;5028;50.974;4.968;2023-11-19T13:14:42;12.37;;;3.57;;
9974;SDS011;5028;50.974;4.968;2023-11-19T13:17:13;15.87;;;4.23;;
9974;SDS011;5028;50.974;4.968;2023-11-19T13:19:42;12.87;;;4.07;;
9974;SDS011;5028;50.974;4.968;2023-11-19T13:22:13;13.03;;;4.00;;
9974;SDS011;5028;50.974;4.968;2023-11-19T13:24:41;14.33;;;4.83;;
9974;SDS011;5028;50.974;4.968;2023-11-19T13:27:10;12.20;;;4.00;;
9974;SDS011;5028;50.974;4.968;2023-11-19T13:29:39;13.50;;;3.90;;
9974;SDS011;5028;50.974;4.968;2023-11-19T13:32:07;13.57;;;4.50;;
9974;SDS011;5028;50.974;4.968;2023-11-19T13:34:36;12.27;;;3.93;;
9974;SDS011;5028;50.974;4.968;2023-11-19T13:37:04;12.83;;;3.87;;
9974;SDS011;5028;50.974;4.968;2023-11-19T13:39:34;14.10;;;3.70;;
9974;SDS011;5028;50.974;4.968;2023-11-19T13:42:03;10.47;;;4.03;;
9974;SDS011;5028;50.974;4.968;2023-11-19T13:44:35;13.97;;;4.30;;
9974;SDS011;5028;50.974;4.968;2023-11-19T13:47:04;15.73;;;3.93;;
9974;SDS011;5028;50.974;4.968;2023-11-19T13:49:34;13.83;;;4.07;;
9974;SDS011;5028;50.974;4.968;2023-11-19T13:52:03;13.40;;;4.50;;
9974;SDS011;5028;50.974;4.968;2023-11-19T13:54:32;14.97;;;4.20;;
9974;SDS011;5028;50.974;4.968;2023-11-19T13:57:02;15.83;;;4.03;;
9974;SDS011;5028;50.974;4.968;2023-11-19T13:59:30;11.40;;;3.93;;
9974;SDS011;5028;50.974;4.968;2023-11-19T14:02:00;11.17;;;3.77;;
9974;SDS011;5028;50.974;4.968;2023-11-19T14:04:28;13.67;;;3.80;;
9974;SDS011;5028;50.974;4.968;2023-11-19T14:06:57;13.27;;;3.33;;
9974;SDS011;5028;50.974;4.968;2023-11-19T14:09:26;13.40;;;3.93;;
9974;SDS011;5028;50.974;4.968;2023-11-19T14:11:55;12.70;;;3.73;;
9974;SDS011;5028;50.974;4.968;2023-11-19T14:14:25;13.43;;;3.63;;
9974;SDS011;5028;50.974;4.968;2023-11-19T14:16:54;15.03;;;3.80;;
9974;SDS011;5028;50.974;4.968;2023-11-19T14:19:39;16.50;;;4.53;;
9974;SDS011;5028;50.974;4.968;2023-11-19T14:22:08;12.93;;;3.93;;
9974;SDS011;5028;50.974;4.968;2023-11-19T14:24:37;14.07;;;4.10;;
9974;SDS011;5028;50.974;4.968;2023-11-19T14:27:07;15.57;;;4.60;;
9974;SDS011;5028;50.974;4.968;2023-11-19T14:29:37;11.57;;;3.73;;
9974;SDS011;5028;50.974;4.968;2023-11-19T14:32:06;13.33;;;4.33;;
9974;SDS011;5028;50.974;4.968;2023-11-19T14:34:35;13.23;;;4.40;;
9974;SDS011;5028;50.974;4.968;2023-11-19T14:37:04;15.00;;;4.40;;
9974;SDS011;5028;50.974;4.968;2023-11-19T14:39:33;13.67;;;4.17;;
9974;SDS011;5028;50.974;4.968;2023-11-19T14:42:02;14.13;;;4.03;;
9974;SDS011;5028;50.974;4.968;2023-11-19T14:44:31;13.97;;;4.53;;
9974;SDS011;5028;50.974;4.968;2023-11-19T14:47:02;14.20;;;4.07;;
9974;SDS011;5028;50.974;4.968;2023-11-19T14:49:31;15.53;;;4.40;;
9974;SDS011;5028;50.974;4.968;2023-11-19T14:52:02;13.37;;;4.80;;
9974;SDS011;5028;50.974;4.968;2023-11-19T14:54:34;14.67;;;4.47;;
9974;SDS011;5028;50.974;4.968;2023-11-19T14:57:02;13.63;;;3.93;;
9974;SDS011;5028;50.974;4.968;2023-11-19T14:59:31;14.17;;;4.00;;
9974;SDS011;5028;50.974;4.968;2023-11-19T15:02:01;17.33;;;5.07;;
9974;SDS011;5028;50.974;4.968;2023-11-19T15:04:30;16.70;;;4.53;;
9974;SDS011;5028;50.974;4.968;2023-11-19T15:06:59;15.67;;;4.60;;
9974;SDS011;5028;50.974;4.968;2023-11-19T15:09:28;17.87;;;4.67;;
9974;SDS011;5028;50.974;4.968;2023-11-19T15:11:56;16.67;;;4.83;;
9974;SDS011;5028;50.974;4.968;2023-11-19T15:14:25;18.57;;;5.37;;
9974;SDS011;5028;50.974;4.968;2023-11-19T15:16:56;15.63;;;4.23;;
9974;SDS011;5028;50.974;4.968;2023-11-19T15:19:26;15.90;;;4.63;;
9974;SDS011;5028;50.974;4.968;2023-11-19T15:21:55;15.60;;;4.37;;